Time;durP1;ratioP1;P1;durP2;ratioP2;P2;SDS_P1;SDS_P2;PMS_P1;PMS_P2;Temp;Humidity;BMP_temperature;BMP_pressure;BME280_temperature;BME280_humidity;BME280_pressure;Samples;Min_cycle;Max_cycle;Signal;HPM_P1;HPM_P2
2021/08/21 00:00:29;;;;;;;6.90;3.78;;;;;;;15.21;79.52;101604.69;4966915;28;20077;-76
2021/08/21 00:02:54;;;;;;;5.53;4.45;;;;;;;15.19;79.66;101609.25;4986515;28;20030;-76
2021/08/21 00:05:19;;;;;;;7.38;4.47;;;;;;;15.16;79.70;101607.81;4982326;28;20541;-76
2021/08/21 00:07:46;;;;;;;5.72;3.95;;;;;;;15.14;79.51;101606.31;4984451;28;20490;-76
2021/08/21 00:10:12;;;;;;;7.68;4.15;;;;;;;15.12;79.75;101608.28;4992556;28;20124;-76
2021/08/21 00:12:38;;;;;;;7.30;4.03;;;;;;;15.09;79.79;101600.81;5009316;28;20042;-76
2021/08/21 00:15:06;;;;;;;6.93;4.25;;;;;;;15.09;79.98;101601.63;4993080;28;20084;-76
2021/08/21 00:17:32;;;;;;;7.78;4.30;;;;;;;15.09;79.97;101611.25;4991513;28;20073;-77
2021/08/21 00:19:57;;;;;;;9.95;3.75;;;;;;;15.06;79.96;101608.97;5005174;28;20030;-76
2021/08/21 00:22:23;;;;;;;7.05;4.00;;;;;;;15.05;80.07;101605.53;4982576;28;20405;-76
2021/08/21 00:24:48;;;;;;;6.43;4.10;;;;;;;15.05;80.19;101607.31;4998125;28;20031;-77
2021/08/21 00:27:14;;;;;;;6.00;3.50;;;;;;;15.04;79.90;101601.28;4991722;28;20117;-76
2021/08/21 00:29:39;;;;;;;11.73;4.50;;;;;;;15.01;79.86;101606.81;4983312;28;20023;-76
2021/08/21 00:32:05;;;;;;;6.50;3.80;;;;;;;14.98;80.15;101604.56;4982165;28;20034;-76
2021/08/21 00:34:32;;;;;;;9.52;4.35;;;;;;;14.98;80.07;101612.41;4987903;28;20517;-76
2021/08/21 00:36:57;;;;;;;9.63;4.18;;;;;;;14.97;79.90;101614.22;4978246;28;20053;-76
2021/08/21 00:39:23;;;;;;;7.32;4.78;;;;;;;14.95;79.90;101608.31;4988497;28;20030;-76
2021/08/21 00:41:48;;;;;;;12.40;4.63;;;;;;;14.96;79.78;101611.75;4977581;28;20045;-76
2021/08/21 00:44:14;;;;;;;9.10;4.35;;;;;;;14.93;80.21;101599.81;4995658;28;20435;-77
2021/08/21 00:47:00;;;;;;;10.27;4.22;;;;;;;14.89;80.34;101598.53;4985205;28;20875;-76
2021/08/21 00:49:29;;;;;;;7.07;3.80;;;;;;;14.82;80.68;101602.78;4992776;28;20042;-76
2021/08/21 00:51:56;;;;;;;10.35;4.38;;;;;;;14.72;80.84;101599.53;4975696;28;20033;-77
2021/08/21 00:54:22;;;;;;;6.35;3.40;;;;;;;14.63;80.65;101593.47;4963247;28;20049;-77
2021/08/21 00:56:51;;;;;;;4.93;3.38;;;;;;;14.56;80.85;101595.06;4980698;28;20668;-77
2021/08/21 00:59:17;;;;;;;9.93;4.30;;;;;;;14.51;81.29;101598.19;4985348;28;20568;-77
2021/08/21 01:01:43;;;;;;;5.82;3.53;;;;;;;14.48;81.29;101590.66;4959193;28;20508;-77
2021/08/21 01:04:09;;;;;;;6.60;3.17;;;;;;;14.48;81.08;101593.28;4997638;28;20041;-76
2021/08/21 01:06:35;;;;;;;7.63;3.88;;;;;;;14.50;81.11;101593.13;4976428;28;20038;-77
2021/08/21 01:09:01;;;;;;;7.50;4.30;;;;;;;14.51;80.85;101594.78;4985104;28;20630;-77
2021/08/21 01:11:30;;;;;;;5.78;4.15;;;;;;;14.50;80.86;101593.13;4964975;28;20120;-77
2021/08/21 01:13:56;;;;;;;10.50;4.20;;;;;;;14.45;80.86;101593.63;4987915;28;20522;-76
2021/08/21 01:16:22;;;;;;;6.18;4.32;;;;;;;14.44;81.08;101599.00;4964552;28;20104;-77
2021/08/21 01:18:50;;;;;;;9.15;4.78;;;;;;;14.45;80.98;101598.00;4988326;28;20026;-77
2021/08/21 01:21:17;;;;;;;7.55;4.60;;;;;;;14.43;80.77;101597.34;4993148;28;20033;-77
2021/08/21 01:23:44;;;;;;;7.38;4.18;;;;;;;14.36;81.00;101598.00;4974233;28;20018;-77
2021/08/21 01:26:12;;;;;;;5.00;3.83;;;;;;;14.32;81.31;101596.72;5011771;28;20042;-77
2021/08/21 01:28:54;;;;;;;6.55;3.65;;;;;;;14.30;81.18;101596.06;4983413;28;20030;-77
2021/08/21 01:31:39;;;;;;;6.28;4.20;;;;;;;14.31;81.17;101589.03;4997223;28;20053;-76
2021/08/21 01:34:05;;;;;;;8.27;3.47;;;;;;;14.31;80.97;101597.66;4975025;28;20389;-77
2021/08/21 01:36:45;;;;;;;10.43;3.85;;;;;;;14.31;80.89;101602.06;4994314;28;20037;-77
2021/08/21 01:39:40;;;;;;;7.32;4.07;;;;;;;14.30;80.76;101598.66;4993321;28;20041;-77
2021/08/21 01:42:25;;;;;;;8.10;3.95;;;;;;;14.29;80.75;101594.41;5007223;28;20255;-77
2021/08/21 01:44:51;;;;;;;6.97;4.30;;;;;;;14.23;80.87;101589.03;4982098;28;20048;-77
2021/08/21 01:47:18;;;;;;;5.45;3.80;;;;;;;14.12;81.25;101588.34;5006809;28;20076;-77
2021/08/21 01:49:58;;;;;;;6.03;4.28;;;;;;;14.07;81.37;101589.81;4989910;28;20362;-76
2021/08/21 01:52:25;;;;;;;7.97;4.32;;;;;;;14.01;81.70;101581.66;4990330;28;20030;-77
2021/08/21 01:54:51;;;;;;;8.93;4.47;;;;;;;14.02;81.37;101583.28;4990107;28;20034;-77
2021/08/21 01:57:16;;;;;;;8.65;4.50;;;;;;;14.01;81.62;101586.88;4990063;28;20112;-77
2021/08/21 01:59:58;;;;;;;6.78;3.78;;;;;;;14.06;81.35;101583.78;4997239;28;20034;-77
2021/08/21 02:02:40;;;;;;;6.57;4.18;;;;;;;14.06;81.24;101578.56;4992547;28;20038;-76
2021/08/21 02:05:18;;;;;;;10.10;4.28;;;;;;;14.06;81.30;101567.31;4989810;28;20076;-76
2021/08/21 02:07:43;;;;;;;7.15;4.40;;;;;;;14.04;81.31;101572.69;4990051;28;20037;-77
2021/08/21 02:10:10;;;;;;;8.63;4.38;;;;;;;13.99;81.49;101570.59;5006255;28;20033;-77
2021/08/21 02:12:36;;;;;;;7.93;5.07;;;;;;;13.96;81.57;101577.91;4989821;28;20018;-77
2021/08/21 02:15:09;;;;;;;8.85;4.65;;;;;;;13.94;81.56;101579.84;5005996;28;20037;-77
2021/08/21 02:17:35;;;;;;;8.55;4.93;;;;;;;13.90;81.64;101576.75;4968618;28;20115;-77
2021/08/21 02:20:21;;;;;;;8.68;4.93;;;;;;;13.85;81.45;101581.63;4990873;28;20046;-76
2021/08/21 02:22:46;;;;;;;9.95;4.43;;;;;;;13.81;81.61;101578.50;4991490;28;20161;-77
2021/08/21 02:25:14;;;;;;;7.85;4.63;;;;;;;13.75;81.63;101586.97;4973339;28;20526;-77
2021/08/21 02:27:44;;;;;;;11.82;4.65;;;;;;;13.68;81.94;101578.13;4958372;28;20614;-77
2021/08/21 02:30:10;;;;;;;11.30;5.00;;;;;;;13.63;81.81;101577.78;4991858;28;20033;-77
2021/08/21 02:32:36;;;;;;;9.02;5.57;;;;;;;13.59;81.92;101581.69;4974001;28;20038;-77
2021/08/21 02:35:02;;;;;;;8.40;4.82;;;;;;;13.59;82.12;101585.09;4985479;28;20570;-77
2021/08/21 02:37:28;;;;;;;8.85;5.25;;;;;;;13.62;81.92;101587.41;4980344;28;20041;-77
2021/08/21 02:39:54;;;;;;;10.70;4.82;;;;;;;13.66;81.60;101577.47;4972542;28;20713;-77
2021/08/21 02:42:20;;;;;;;9.15;5.30;;;;;;;13.64;81.83;101589.84;4973447;28;20034;-76
2021/08/21 02:44:46;;;;;;;8.15;4.75;;;;;;;13.59;81.94;101579.06;4982874;28;20384;-77
2021/08/21 02:47:12;;;;;;;9.10;4.90;;;;;;;13.57;81.92;101578.41;4960038;28;20515;-77
2021/08/21 02:49:37;;;;;;;8.73;5.45;;;;;;;13.56;81.95;101572.41;4990159;28;20042;-77
2021/08/21 02:52:03;;;;;;;10.55;5.72;;;;;;;13.56;81.99;101572.41;4993783;28;20029;-77
2021/08/21 02:54:30;;;;;;;6.80;4.70;;;;;;;13.57;81.93;101565.38;4965714;28;20065;-76
2021/08/21 02:56:57;;;;;;;13.18;5.18;;;;;;;13.54;82.02;101560.47;4984480;28;20053;-77
2021/08/21 02:59:22;;;;;;;6.95;4.38;;;;;;;13.51;82.35;101564.22;4979594;28;20038;-77
2021/08/21 03:01:48;;;;;;;9.05;5.03;;;;;;;13.50;82.28;101566.97;4976690;28;20030;-76
2021/08/21 03:04:14;;;;;;;7.65;4.70;;;;;;;13.46;81.91;101565.66;4964703;28;20506;-77
2021/08/21 03:06:43;;;;;;;7.85;5.45;;;;;;;13.41;82.31;101561.75;4984040;28;20273;-77
2021/08/21 03:09:15;;;;;;;7.32;5.13;;;;;;;13.42;82.48;101559.94;4974840;28;20078;-77
2021/08/21 03:11:41;;;;;;;12.80;5.50;;;;;;;13.43;82.30;101565.00;4978788;28;20053;-77
2021/08/21 03:14:21;;;;;;;8.50;5.50;;;;;;;13.44;82.14;101560.59;5000826;28;20202;-77
2021/08/21 03:16:48;;;;;;;9.13;5.93;;;;;;;13.46;82.21;101569.06;4979381;28;20496;-77
2021/08/21 03:19:13;;;;;;;11.60;6.05;;;;;;;13.47;81.97;101568.13;4972096;28;20040;-77
2021/08/21 03:21:39;;;;;;;10.50;6.55;;;;;;;13.43;81.97;101564.19;4989048;28;20491;-77
2021/08/21 03:24:06;;;;;;;12.98;6.80;;;;;;;13.38;82.35;101575.06;5003846;28;20052;-77
2021/08/21 03:26:32;;;;;;;10.85;5.93;;;;;;;13.35;82.32;101566.75;4996966;28;20041;-77
2021/08/21 03:28:59;;;;;;;13.32;6.68;;;;;;;13.31;82.40;101563.63;4989937;28;20052;-77
2021/08/21 03:31:24;;;;;;;15.27;5.88;;;;;;;13.28;82.65;101571.75;4996236;28;20042;-77
2021/08/21 03:33:50;;;;;;;7.85;5.65;;;;;;;13.24;83.08;101566.03;4998294;28;20367;-76
2021/08/21 03:36:16;;;;;;;7.05;5.20;;;;;;;13.22;83.36;101573.19;4996501;28;20041;-77
2021/08/21 03:38:44;;;;;;;7.65;4.63;;;;;;;13.24;83.62;101570.41;4990371;28;20037;-77
2021/08/21 03:41:15;;;;;;;8.70;5.78;;;;;;;13.25;83.86;101569.44;4983742;28;20259;-77
2021/08/21 03:44:00;;;;;;;9.07;5.07;;;;;;;13.27;83.91;101572.69;4987821;28;20499;-77
2021/08/21 03:46:27;;;;;;;13.00;5.50;;;;;;;13.29;84.21;101572.56;4976734;28;20104;-77
2021/08/21 03:48:53;;;;;;;11.75;7.32;;;;;;;13.33;84.17;101571.28;4981996;28;20033;-77
2021/08/21 03:51:20;;;;;;;22.33;14.93;;;;;;;13.40;85.33;101570.50;4991721;28;20034;-77
2021/08/21 03:53:47;;;;;;;21.42;15.68;;;;;;;13.39;85.79;101576.72;4996133;28;20296;-76
2021/08/21 03:56:15;;;;;;;22.38;16.50;;;;;;;13.42;86.41;101560.75;5010552;28;20037;-77
2021/08/21 03:58:47;;;;;;;24.00;15.73;;;;;;;13.44;86.40;101577.03;4984775;28;20172;-76
2021/08/21 04:01:13;;;;;;;21.13;14.95;;;;;;;13.59;87.70;101576.47;4989448;28;20093;-77
2021/08/21 04:03:39;;;;;;;15.70;9.85;;;;;;;13.79;89.41;101572.63;4975678;28;20021;-77
2021/08/21 04:06:10;;;;;;;17.48;10.73;;;;;;;13.89;90.08;101577.72;4979277;28;20038;-77
2021/08/21 04:08:37;;;;;;;18.13;9.65;;;;;;;13.89;90.19;101575.09;4982925;28;20030;-77
2021/08/21 04:11:03;;;;;;;14.40;9.27;;;;;;;13.81;90.55;101565.47;4971478;28;20053;-77
2021/08/21 04:13:33;;;;;;;11.93;9.23;;;;;;;13.86;90.77;101572.00;4985927;28;20041;-77
2021/08/21 04:15:59;;;;;;;14.90;8.85;;;;;;;13.89;91.04;101566.47;4967797;28;20049;-76
2021/08/21 04:18:24;;;;;;;13.50;9.88;;;;;;;13.97;91.05;101562.06;4986082;28;20029;-78
2021/08/21 04:20:50;;;;;;;17.05;9.25;;;;;;;14.09;90.77;101567.81;4964072;28;20384;-77
2021/08/21 04:23:16;;;;;;;17.08;10.05;;;;;;;14.00;91.09;101563.56;4972371;28;20034;-77
2021/08/21 04:25:45;;;;;;;15.35;10.25;;;;;;;13.92;91.15;101571.34;4989805;28;20197;-78
2021/08/21 04:28:11;;;;;;;16.00;10.27;;;;;;;13.99;90.67;101567.97;4968616;28;20064;-77
2021/08/21 04:30:36;;;;;;;15.43;9.02;;;;;;;14.02;90.76;101570.25;4979725;28;20042;-77
2021/08/21 04:33:02;;;;;;;13.38;9.70;;;;;;;14.05;90.94;101563.06;4959509;28;20686;-77
2021/08/21 04:35:28;;;;;;;15.52;9.48;;;;;;;13.99;91.02;101564.53;4973171;28;20049;-78
2021/08/21 04:37:54;;;;;;;11.25;8.77;;;;;;;13.94;90.90;101565.03;4968590;28;20125;-77
2021/08/21 04:40:22;;;;;;;12.15;9.45;;;;;;;14.00;90.82;101566.97;4982627;28;20399;-77
2021/08/21 04:42:51;;;;;;;16.10;11.30;;;;;;;14.07;90.60;101568.94;4975163;28;20034;-76
2021/08/21 04:45:17;;;;;;;19.60;14.77;;;;;;;13.98;90.61;101561.13;5002115;28;20038;-77
2021/08/21 04:47:42;;;;;;;19.77;14.68;;;;;;;14.00;90.82;101566.97;4977527;28;20484;-77
2021/08/21 04:50:09;;;;;;;17.40;12.88;;;;;;;14.00;90.88;101563.56;4986099;28;20026;-77
2021/08/21 04:52:36;;;;;;;38.78;32.08;;;;;;;14.04;90.66;101562.25;4971274;28;20515;-76
2021/08/21 04:55:02;;;;;;;35.45;29.67;;;;;;;14.04;90.68;101570.09;4992602;28;20033;-77
2021/08/21 04:57:29;;;;;;;66.70;56.08;;;;;;;14.13;90.05;101574.34;4979831;28;20288;-77
2021/08/21 04:59:55;;;;;;;69.05;59.08;;;;;;;14.21;89.82;101573.53;4987203;28;20049;-77
2021/08/21 05:02:21;;;;;;;59.80;48.08;;;;;;;14.15;89.64;101574.19;4976970;28;20034;-77
2021/08/21 05:04:47;;;;;;;64.32;54.20;;;;;;;14.15;90.04;101575.00;4987359;28;20040;-77
2021/08/21 05:07:13;;;;;;;63.88;51.78;;;;;;;14.19;89.89;101570.28;4975571;28;20045;-79
2021/08/21 05:09:44;;;;;;;59.20;49.33;;;;;;;14.14;90.07;101572.53;4997838;28;20241;-78
2021/08/21 05:12:14;;;;;;;59.92;51.80;;;;;;;14.35;89.49;101572.06;4987003;28;20076;-77
2021/08/21 05:14:49;;;;;;;51.72;42.25;;;;;;;14.25;89.76;101576.66;4993953;28;20037;-78
2021/08/21 05:17:14;;;;;;;54.15;42.53;;;;;;;14.19;89.90;101573.69;4980334;28;20033;-77
2021/08/21 05:19:58;;;;;;;52.90;41.80;;;;;;;14.19;90.01;101578.91;4995056;28;20502;-77
2021/08/21 05:25:09;;;;;;;28.58;22.65;;;;;;;14.29;89.54;101580.56;4984009;28;20362;-78
2021/08/21 05:27:34;;;;;;;19.50;16.30;;;;;;;14.32;89.64;101577.63;4968668;28;20026;-78
2021/08/21 05:30:01;;;;;;;23.85;17.08;;;;;;;14.38;89.43;101574.38;4985398;28;20173;-78
2021/08/21 05:32:26;;;;;;;29.63;24.42;;;;;;;14.39;89.23;101582.03;4993269;28;20444;-77
2021/08/21 05:34:53;;;;;;;25.35;21.38;;;;;;;14.48;89.01;101576.81;4980109;28;20095;-76
2021/08/21 05:37:19;;;;;;;22.73;15.43;;;;;;;14.49;89.11;101574.06;4994341;28;20033;-76
2021/08/21 05:39:44;;;;;;;14.10;10.02;;;;;;;14.55;88.86;101575.19;4978048;28;20503;-78
2021/08/21 05:42:10;;;;;;;21.45;13.57;;;;;;;14.53;89.25;101574.53;4984621;28;20042;-77
2021/08/21 05:44:35;;;;;;;21.67;16.45;;;;;;;14.58;89.18;101574.91;4978468;28;20034;-77
2021/08/21 05:47:00;;;;;;;29.17;24.02;;;;;;;14.58;89.08;101570.50;4997537;28;20389;-78
2021/08/21 05:49:26;;;;;;;26.60;22.85;;;;;;;14.62;89.34;101575.38;4981455;28;20041;-78
2021/08/21 05:51:51;;;;;;;24.58;20.02;;;;;;;14.65;89.12;101580.28;4997540;28;20471;-77
2021/08/21 05:54:21;;;;;;;30.80;23.38;;;;;;;14.71;89.15;101574.38;4986187;28;20030;-78
2021/08/21 05:56:46;;;;;;;22.88;17.48;;;;;;;14.77;89.35;101586.81;4993283;28;20057;-77
2021/08/21 05:59:12;;;;;;;33.30;25.55;;;;;;;14.82;88.77;101575.84;4979365;28;20042;-77
2021/08/21 06:01:38;;;;;;;22.67;17.40;;;;;;;14.90;88.51;101579.28;4987632;28;20042;-78
2021/08/21 06:04:07;;;;;;;20.83;16.58;;;;;;;14.90;88.39;101578.44;4995770;28;20483;-78
2021/08/21 06:06:34;;;;;;;16.17;12.75;;;;;;;14.90;88.64;101587.13;4981839;28;20034;-77
2021/08/21 06:09:00;;;;;;;18.50;15.13;;;;;;;15.06;88.00;101590.69;4986124;28;20037;-77
2021/08/21 06:11:26;;;;;;;24.88;19.67;;;;;;;15.05;87.99;101584.66;4961345;28;20037;-78
2021/08/21 06:13:52;;;;;;;22.35;17.45;;;;;;;15.01;88.07;101593.78;4964754;28;20047;-77
2021/08/21 06:16:17;;;;;;;21.38;15.43;;;;;;;15.13;87.68;101591.66;4994654;28;20039;-78
2021/08/21 06:18:43;;;;;;;21.20;15.40;;;;;;;15.12;87.59;101593.44;4997595;28;20612;-78
2021/08/21 06:21:08;;;;;;;13.20;9.30;;;;;;;15.12;87.23;101601.25;4996780;28;20041;-77
2021/08/21 06:23:34;;;;;;;13.93;10.57;;;;;;;15.23;86.84;101597.50;4978108;28;20424;-76
2021/08/21 06:26:00;;;;;;;17.77;13.13;;;;;;;15.18;87.08;101589.34;4998534;28;20026;-77
2021/08/21 06:28:25;;;;;;;13.70;9.38;;;;;;;15.13;87.30;101595.06;4984462;28;20038;-77
2021/08/21 06:30:51;;;;;;;13.57;9.63;;;;;;;15.32;86.81;101586.03;4998354;28;20033;-76
2021/08/21 06:33:16;;;;;;;17.38;10.18;;;;;;;15.30;86.86;101595.84;4985309;28;20044;-77
2021/08/21 06:35:43;;;;;;;19.90;14.93;;;;;;;15.39;86.78;101591.41;4997618;28;20052;-76
2021/08/21 06:38:09;;;;;;;17.85;12.82;;;;;;;15.39;87.31;101588.81;5002050;28;20110;-77
2021/08/21 06:40:34;;;;;;;19.50;11.35;;;;;;;15.48;86.90;101594.81;4999614;28;20935;-77
2021/08/21 06:43:00;;;;;;;26.63;15.30;;;;;;;15.60;86.72;101583.00;4985182;28;20475;-77
2021/08/21 06:45:33;;;;;;;16.88;12.20;;;;;;;15.58;86.89;101579.75;4997712;28;20033;-77
2021/08/21 06:47:58;;;;;;;17.65;12.45;;;;;;;15.70;86.52;101586.22;4982609;28;20044;-76
2021/08/21 06:50:24;;;;;;;17.60;9.88;;;;;;;15.83;86.12;101593.53;5002502;28;20044;-76
2021/08/21 06:52:51;;;;;;;18.35;10.52;;;;;;;15.93;85.88;101578.44;4998536;28;20050;-76
2021/08/21 06:55:17;;;;;;;12.25;7.95;;;;;;;16.12;85.16;101579.81;5000630;28;20037;-77
2021/08/21 06:57:43;;;;;;;15.38;10.50;;;;;;;16.30;84.73;101576.09;5002807;28;20439;-77
2021/08/21 07:00:09;;;;;;;14.50;9.90;;;;;;;16.51;84.66;101586.72;5015402;28;20040;-77
2021/08/21 07:02:34;;;;;;;13.93;8.57;;;;;;;16.86;83.54;101581.06;4997370;28;20511;-76
2021/08/21 07:05:00;;;;;;;20.00;13.43;;;;;;;17.13;82.27;101582.25;5003878;28;20034;-77
2021/08/21 07:07:25;;;;;;;17.13;12.40;;;;;;;17.73;80.46;101576.97;4981670;28;20042;-77
2021/08/21 07:09:51;;;;;;;15.50;11.30;;;;;;;18.43;78.47;101581.53;4993420;28;20044;-77
2021/08/21 07:12:17;;;;;;;10.38;8.65;;;;;;;19.08;75.09;101572.72;4996843;28;20040;-76
2021/08/21 07:14:43;;;;;;;16.40;9.25;;;;;;;19.52;73.01;101571.53;5005057;28;20096;-77
2021/08/21 07:17:10;;;;;;;13.55;8.93;;;;;;;19.94;71.60;101564.38;4979279;28;20038;-77
2021/08/21 07:19:35;;;;;;;13.57;8.45;;;;;;;20.15;70.91;101560.75;5006557;28;20112;-77
2021/08/21 07:22:01;;;;;;;15.02;9.65;;;;;;;20.45;69.34;101557.75;4988619;28;20431;-76
2021/08/21 07:24:26;;;;;;;13.88;8.13;;;;;;;20.66;68.50;101559.38;4985887;28;20492;-77
2021/08/21 07:26:52;;;;;;;28.20;11.88;;;;;;;20.52;67.52;101548.00;4984144;28;20412;-77
2021/08/21 07:29:17;;;;;;;12.63;9.85;;;;;;;20.49;68.41;101556.31;5000389;28;20523;-77
2021/08/21 07:31:43;;;;;;;12.30;8.85;;;;;;;20.78;67.33;101557.75;5005097;28;20117;-77
2021/08/21 07:34:08;;;;;;;12.45;7.00;;;;;;;21.02;66.66;101558.91;5003775;28;20030;-76
2021/08/21 07:36:34;;;;;;;11.93;6.70;;;;;;;21.15;65.78;101566.78;4985312;28;20667;-77
2021/08/21 07:38:59;;;;;;;12.48;8.00;;;;;;;21.33;66.20;101560.81;5003062;28;20072;-77
2021/08/21 07:41:25;;;;;;;10.35;7.25;;;;;;;21.52;64.35;101574.16;4967893;28;20479;-77
2021/08/21 07:43:50;;;;;;;12.05;6.30;;;;;;;22.03;63.95;101559.25;5008731;28;20036;-78
2021/08/21 07:46:16;;;;;;;11.15;6.63;;;;;;;22.30;62.99;101563.38;4987919;28;20045;-78
2021/08/21 07:48:41;;;;;;;8.07;6.00;;;;;;;22.65;61.74;101556.75;4988314;28;20048;-77
2021/08/21 07:51:07;;;;;;;11.07;7.43;;;;;;;22.72;60.80;101566.22;4986565;28;20088;-78
2021/08/21 07:53:32;;;;;;;11.45;6.60;;;;;;;23.04;61.05;101567.97;4992470;28;20045;-77
2021/08/21 07:55:58;;;;;;;12.13;5.28;;;;;;;23.55;60.29;101560.66;5002695;28;20042;-78
2021/08/21 07:58:23;;;;;;;8.23;5.10;;;;;;;23.70;58.75;101569.00;4998985;28;20072;-78
2021/08/21 08:00:49;;;;;;;7.30;4.43;;;;;;;23.64;57.92;101572.50;4987270;28;20108;-78
2021/08/21 08:03:17;;;;;;;8.73;5.07;;;;;;;23.92;58.35;101574.59;4994286;28;20042;-77
2021/08/21 08:05:43;;;;;;;6.78;4.80;;;;;;;24.06;56.92;101569.94;5005020;28;20037;-79
2021/08/21 08:08:09;;;;;;;9.38;4.88;;;;;;;23.78;57.62;101567.88;4986527;28;20403;-79
2021/08/21 08:10:34;;;;;;;6.90;4.30;;;;;;;24.01;58.01;101575.88;4998114;28;20030;-78
2021/08/21 08:13:00;;;;;;;5.45;4.05;;;;;;;24.00;57.73;101563.69;5000222;28;20036;-78
2021/08/21 08:15:25;;;;;;;11.02;4.50;;;;;;;23.89;58.20;101562.63;4986450;28;20501;-79
2021/08/21 08:17:51;;;;;;;7.22;4.70;;;;;;;23.77;58.60;101568.88;5005980;28;20044;-78
2021/08/21 08:20:17;;;;;;;6.90;3.85;;;;;;;23.71;59.64;101567.94;4990283;28;20396;-78
2021/08/21 08:22:42;;;;;;;6.22;4.45;;;;;;;23.58;59.14;101561.00;4995257;28;20042;-80
2021/08/21 08:25:09;;;;;;;8.77;5.20;;;;;;;22.85;60.91;101567.94;4982063;28;20038;-78
2021/08/21 08:27:35;;;;;;;6.97;4.50;;;;;;;22.98;60.85;101571.47;4989042;28;20097;-80
2021/08/21 08:30:02;;;;;;;6.88;4.50;;;;;;;23.12;59.61;101573.78;4991166;28;20038;-77
2021/08/21 08:32:28;;;;;;;8.13;4.60;;;;;;;23.04;60.77;101567.97;4999194;28;20403;-79
2021/08/21 08:34:53;;;;;;;12.38;4.72;;;;;;;22.86;60.98;101572.19;4981595;28;20034;-78
2021/08/21 08:37:19;;;;;;;7.82;4.75;;;;;;;23.00;61.36;101575.50;4973305;28;20785;-80
2021/08/21 08:39:44;;;;;;;6.53;4.75;;;;;;;23.26;60.42;101571.78;4988663;28;20572;-78
2021/08/21 08:42:10;;;;;;;7.32;4.75;;;;;;;23.32;59.14;101578.03;5008879;28;20056;-79
2021/08/21 08:44:43;;;;;;;10.82;4.95;;;;;;;23.31;58.88;101571.91;5013554;28;20061;-80
2021/08/21 08:47:09;;;;;;;6.88;4.78;;;;;;;23.84;58.29;101572.28;4988065;28;20038;-78
2021/08/21 08:49:37;;;;;;;9.38;5.43;;;;;;;24.37;56.53;101562.69;4993310;28;20234;-78
2021/08/21 08:52:02;;;;;;;4.90;3.85;;;;;;;24.84;56.23;101571.47;4993571;28;20058;-78
2021/08/21 08:54:28;;;;;;;6.10;4.30;;;;;;;24.83;53.53;101566.41;4996549;28;20034;-78
2021/08/21 08:56:53;;;;;;;6.53;4.35;;;;;;;24.65;53.35;101559.38;4984661;28;20498;-77
2021/08/21 08:59:19;;;;;;;8.82;4.38;;;;;;;24.78;53.61;101566.28;4981314;28;20044;-79
2021/08/21 09:01:44;;;;;;;6.03;3.80;;;;;;;24.74;54.10;101565.94;4981457;28;20073;-77
2021/08/21 09:04:19;;;;;;;7.72;3.63;;;;;;;25.10;52.45;101563.25;5003376;28;20034;-78
2021/08/21 09:06:45;;;;;;;5.55;3.63;;;;;;;25.09;52.09;101553.66;4981368;28;20034;-75
2021/08/21 09:09:15;;;;;;;4.80;3.30;;;;;;;25.00;52.13;101556.69;4982399;28;20049;-78
2021/08/21 09:11:44;;;;;;;5.35;3.53;;;;;;;25.10;52.78;101555.28;4988914;28;20065;-78
2021/08/21 09:14:30;;;;;;;7.70;4.28;;;;;;;24.97;52.28;101548.38;4989341;28;20052;-79
2021/08/21 09:17:17;;;;;;;13.45;5.28;;;;;;;24.51;52.68;101545.53;5003185;28;20034;-77
2021/08/21 09:19:42;;;;;;;6.70;4.40;;;;;;;24.70;53.51;101548.91;4998555;28;20040;-79
2021/08/21 09:22:10;;;;;;;4.90;3.20;;;;;;;25.13;53.86;101554.78;4994163;28;20029;-78
2021/08/21 09:24:37;;;;;;;4.97;3.15;;;;;;;25.47;52.29;101549.63;5005568;28;20034;-79
2021/08/21 09:27:14;;;;;;;9.63;3.55;;;;;;;25.31;51.25;101548.56;4980913;28;20513;-77
2021/08/21 09:29:40;;;;;;;5.75;3.80;;;;;;;25.16;50.42;101547.19;4996072;28;20068;-79
2021/08/21 09:32:07;;;;;;;7.03;3.88;;;;;;;25.22;51.80;101545.44;4975774;28;20041;-77
2021/08/21 09:34:33;;;;;;;4.57;3.38;;;;;;;25.20;51.04;101544.84;4990401;28;20415;-79
2021/08/21 09:36:59;;;;;;;9.05;4.18;;;;;;;25.29;51.48;101534.72;4994030;28;20022;-77
2021/08/21 09:39:38;;;;;;;5.78;3.17;;;;;;;25.38;50.98;101546.56;4965773;28;20046;-76
2021/08/21 09:42:07;;;;;;;6.53;2.85;;;;;;;25.43;50.05;101547.47;4999954;28;20077;-77
2021/08/21 09:44:32;;;;;;;4.22;2.20;;;;;;;25.52;49.99;101542.56;4991923;28;20034;-77
2021/08/21 09:47:38;;;;;;;5.20;2.80;;;;;;;25.40;50.54;101549.78;5001490;28;20136;-76
2021/08/21 09:50:16;;;;;;;4.57;3.28;;;;;;;25.37;50.06;101540.47;4917875;29;20039;-78
2021/08/21 09:52:43;;;;;;;7.60;2.60;;;;;;;25.69;51.32;101541.78;4910407;29;20040;-80
2021/08/21 09:55:14;;;;;;;4.90;3.22;;;;;;;25.73;49.75;101546.41;4954044;28;20092;-78
2021/08/21 09:57:40;;;;;;;4.22;2.80;;;;;;;25.67;49.40;101542.03;4997819;28;20056;-78
2021/08/21 10:00:06;;;;;;;3.30;2.28;;;;;;;25.43;49.46;101544.81;4973330;28;20128;-77
2021/08/21 10:02:42;;;;;;;4.47;2.45;;;;;;;25.88;50.40;101534.41;4964449;28;20045;-81
2021/08/21 10:05:08;;;;;;;6.10;2.03;;;;;;;26.14;49.05;101535.66;4970004;28;20041;-77
2021/08/21 10:07:40;;;;;;;4.68;2.67;;;;;;;26.02;49.56;101535.75;4979070;28;21349;-78
2021/08/21 10:10:11;;;;;;;8.38;3.28;;;;;;;26.15;48.48;101529.31;4980516;28;20065;-80
2021/08/21 10:12:41;;;;;;;8.18;3.95;;;;;;;25.97;48.19;101527.69;4963565;28;20038;-77
2021/08/21 10:15:06;;;;;;;6.15;3.67;;;;;;;26.14;47.12;101523.16;4980909;28;20045;-79
2021/08/21 10:17:32;;;;;;;8.75;3.55;;;;;;;26.14;49.20;101533.78;4992184;28;20037;-74
2021/08/21 10:19:58;;;;;;;7.50;3.22;;;;;;;26.25;48.34;101533.97;4971419;28;20080;-77
2021/08/21 10:22:28;;;;;;;6.80;3.13;;;;;;;26.17;48.19;101530.66;4993976;28;20276;-77
2021/08/21 10:24:54;;;;;;;6.25;3.58;;;;;;;26.34;47.92;101532.50;4985900;28;20405;-78
2021/08/21 10:27:31;;;;;;;5.72;4.07;;;;;;;26.37;47.09;101532.81;4990262;28;20044;-77
2021/08/21 10:30:04;;;;;;;5.28;3.38;;;;;;;26.17;47.09;101532.53;5006285;28;20037;-75
2021/08/21 10:32:35;;;;;;;11.07;5.50;;;;;;;26.15;46.40;101526.66;4987561;28;20093;-80
2021/08/21 10:35:02;;;;;;;6.22;3.50;;;;;;;26.16;47.97;101521.09;4995610;28;20435;-79
2021/08/21 10:37:31;;;;;;;9.60;4.75;;;;;;;26.25;47.44;101523.34;4988559;28;20583;-78
2021/08/21 10:39:57;;;;;;;3.65;2.35;;;;;;;26.17;46.83;101530.66;4983559;28;20488;-77
2021/08/21 10:42:30;;;;;;;3.65;2.53;;;;;;;26.27;47.30;101522.03;5006275;28;20049;-80
2021/08/21 10:44:58;;;;;;;3.60;1.98;;;;;;;26.34;47.77;101516.56;5006509;28;20085;-78
2021/08/21 10:47:29;;;;;;;6.45;3.33;;;;;;;26.26;46.80;101514.28;4991457;28;20065;-77
2021/08/21 10:49:56;;;;;;;4.72;2.88;;;;;;;26.23;46.36;101511.09;5003188;28;20034;-78
2021/08/21 10:52:59;;;;;;;5.72;3.25;;;;;;;26.32;47.57;101510.69;4998981;28;20043;-77
2021/08/21 10:55:29;;;;;;;7.65;3.78;;;;;;;26.00;46.17;101508.63;4993306;28;20049;-79
2021/08/21 10:58:01;;;;;;;4.30;2.40;;;;;;;26.12;48.76;101511.97;4971820;28;20067;-79
2021/08/21 11:00:39;;;;;;;4.07;2.60;;;;;;;26.39;48.00;101513.94;4997249;28;20480;-80
2021/08/21 11:03:12;;;;;;;5.55;2.58;;;;;;;26.49;46.13;101514.09;4994162;28;20661;-80
2021/08/21 11:05:50;;;;;;;4.22;2.53;;;;;;;26.61;46.21;101509.50;4962603;28;20518;-79
2021/08/21 11:08:15;;;;;;;8.73;2.90;;;;;;;26.48;46.88;101504.50;4999618;28;20053;-77
2021/08/21 11:10:41;;;;;;;8.73;2.90;;;;;;;26.55;45.25;101499.03;4986183;28;20488;-79
2021/08/21 11:13:09;;;;;;;6.43;2.67;;;;;;;26.58;45.47;101504.66;4984308;28;20030;-80
2021/08/21 11:15:35;;;;;;;3.30;2.20;;;;;;;26.75;47.65;101496.66;5005051;28;20121;-80
2021/08/21 11:18:02;;;;;;;4.88;2.60;;;;;;;27.11;44.85;101498.91;5002309;28;20124;-79
2021/08/21 11:20:29;;;;;;;4.30;2.83;;;;;;;26.93;44.80;101492.06;4989922;28;20037;-76
2021/08/21 11:23:07;;;;;;;3.78;2.75;;;;;;;26.56;46.00;101490.81;5016204;28;20029;-78
2021/08/21 11:25:40;;;;;;;3.25;2.00;;;;;;;26.56;47.85;101489.97;5008401;28;20046;-79